sensor_id;sensor_type;location;lat;lon;timestamp;P1;durP1;ratioP1;P2;durP2;ratioP2
24745;SDS011;12845;52.042;6.838;2023-06-26T00:01:13;14.23;;;11.40;;
24745;SDS011;12845;52.042;6.838;2023-06-26T00:03:38;13.15;;;11.40;;
24745;SDS011;12845;52.042;6.838;2023-06-26T00:06:04;13.57;;;11.63;;
24745;SDS011;12845;52.042;6.838;2023-06-26T00:08:29;13.95;;;11.35;;
24745;SDS011;12845;52.042;6.838;2023-06-26T00:10:55;13.05;;;11.65;;
24745;SDS011;12845;52.042;6.838;2023-06-26T00:13:20;14.02;;;10.55;;
24745;SDS011;12845;52.042;6.838;2023-06-26T00:15:46;13.57;;;11.82;;
24745;SDS011;12845;52.042;6.838;2023-06-26T00:18:12;14.23;;;12.02;;
24745;SDS011;12845;52.042;6.838;2023-06-26T00:20:37;13.13;;;11.70;;
24745;SDS011;12845;52.042;6.838;2023-06-26T00:23:02;13.50;;;11.15;;
24745;SDS011;12845;52.042;6.838;2023-06-26T00:25:32;13.95;;;11.40;;
24745;SDS011;12845;52.042;6.838;2023-06-26T00:27:58;12.98;;;11.35;;
24745;SDS011;12845;52.042;6.838;2023-06-26T00:30:23;13.23;;;11.80;;
24745;SDS011;12845;52.042;6.838;2023-06-26T00:32:48;13.27;;;11.23;;
24745;SDS011;12845;52.042;6.838;2023-06-26T00:35:14;12.65;;;11.15;;
24745;SDS011;12845;52.042;6.838;2023-06-26T00:37:39;16.05;;;12.52;;
24745;SDS011;12845;52.042;6.838;2023-06-26T00:40:04;15.23;;;12.80;;
24745;SDS011;12845;52.042;6.838;2023-06-26T00:42:30;14.80;;;13.20;;
24745;SDS011;12845;52.042;6.838;2023-06-26T00:44:55;15.40;;;13.07;;
24745;SDS011;12845;52.042;6.838;2023-06-26T00:47:21;15.45;;;13.85;;
24745;SDS011;12845;52.042;6.838;2023-06-26T00:49:46;15.18;;;13.60;;
24745;SDS011;12845;52.042;6.838;2023-06-26T00:52:13;14.93;;;13.32;;
24745;SDS011;12845;52.042;6.838;2023-06-26T00:54:38;15.95;;;13.27;;
24745;SDS011;12845;52.042;6.838;2023-06-26T00:57:04;15.25;;;12.88;;
24745;SDS011;12845;52.042;6.838;2023-06-26T00:59:30;12.75;;;11.38;;
24745;SDS011;12845;52.042;6.838;2023-06-26T01:01:55;13.57;;;11.38;;
24745;SDS011;12845;52.042;6.838;2023-06-26T01:04:21;13.15;;;11.60;;
24745;SDS011;12845;52.042;6.838;2023-06-26T01:06:46;12.15;;;10.73;;
24745;SDS011;12845;52.042;6.838;2023-06-26T01:09:15;11.82;;;10.43;;
24745;SDS011;12845;52.042;6.838;2023-06-26T01:14:07;12.23;;;11.03;;
24745;SDS011;12845;52.042;6.838;2023-06-26T01:16:33;14.30;;;10.45;;
24745;SDS011;12845;52.042;6.838;2023-06-26T01:19:00;12.13;;;10.30;;
24745;SDS011;12845;52.042;6.838;2023-06-26T01:21:26;11.35;;;9.98;;
24745;SDS011;12845;52.042;6.838;2023-06-26T01:26:29;11.48;;;10.25;;
24745;SDS011;12845;52.042;6.838;2023-06-26T01:29:00;13.95;;;10.10;;
24745;SDS011;12845;52.042;6.838;2023-06-26T01:31:27;12.68;;;10.27;;
24745;SDS011;12845;52.042;6.838;2023-06-26T01:33:55;12.77;;;9.93;;
24745;SDS011;12845;52.042;6.838;2023-06-26T01:36:23;13.05;;;10.75;;
24745;SDS011;12845;52.042;6.838;2023-06-26T01:38:49;12.40;;;10.30;;
24745;SDS011;12845;52.042;6.838;2023-06-26T01:41:16;11.75;;;10.43;;
24745;SDS011;12845;52.042;6.838;2023-06-26T01:46:18;11.60;;;10.15;;
24745;SDS011;12845;52.042;6.838;2023-06-26T01:48:53;11.60;;;10.07;;
24745;SDS011;12845;52.042;6.838;2023-06-26T01:51:30;11.95;;;9.77;;
24745;SDS011;12845;52.042;6.838;2023-06-26T01:53:58;11.57;;;10.43;;
24745;SDS011;12845;52.042;6.838;2023-06-26T01:56:25;11.45;;;10.23;;
24745;SDS011;12845;52.042;6.838;2023-06-26T01:58:53;13.25;;;10.35;;
24745;SDS011;12845;52.042;6.838;2023-06-26T02:01:19;12.50;;;10.85;;
24745;SDS011;12845;52.042;6.838;2023-06-26T02:03:45;12.02;;;10.55;;
24745;SDS011;12845;52.042;6.838;2023-06-26T02:06:11;14.77;;;10.95;;
24745;SDS011;12845;52.042;6.838;2023-06-26T02:08:36;12.43;;;10.40;;
24745;SDS011;12845;52.042;6.838;2023-06-26T02:11:01;12.45;;;10.82;;
24745;SDS011;12845;52.042;6.838;2023-06-26T02:13:26;12.40;;;11.05;;
24745;SDS011;12845;52.042;6.838;2023-06-26T02:15:52;13.40;;;10.68;;
24745;SDS011;12845;52.042;6.838;2023-06-26T02:18:17;13.23;;;10.63;;
24745;SDS011;12845;52.042;6.838;2023-06-26T02:20:43;13.77;;;11.07;;
24745;SDS011;12845;52.042;6.838;2023-06-26T02:23:09;14.23;;;12.02;;
24745;SDS011;12845;52.042;6.838;2023-06-26T02:25:34;15.27;;;11.25;;
24745;SDS011;12845;52.042;6.838;2023-06-26T02:28:00;14.60;;;11.43;;
24745;SDS011;12845;52.042;6.838;2023-06-26T02:30:25;13.90;;;12.40;;
24745;SDS011;12845;52.042;6.838;2023-06-26T02:32:50;14.88;;;11.55;;
24745;SDS011;12845;52.042;6.838;2023-06-26T02:35:16;15.32;;;11.70;;
24745;SDS011;12845;52.042;6.838;2023-06-26T02:37:41;14.43;;;11.27;;
24745;SDS011;12845;52.042;6.838;2023-06-26T02:40:06;19.00;;;12.27;;
24745;SDS011;12845;52.042;6.838;2023-06-26T02:42:34;14.30;;;11.20;;
24745;SDS011;12845;52.042;6.838;2023-06-26T02:44:59;13.98;;;12.00;;
24745;SDS011;12845;52.042;6.838;2023-06-26T02:47:25;14.98;;;11.75;;
24745;SDS011;12845;52.042;6.838;2023-06-26T02:49:50;16.27;;;12.80;;
24745;SDS011;12845;52.042;6.838;2023-06-26T02:52:15;15.85;;;12.23;;
24745;SDS011;12845;52.042;6.838;2023-06-26T02:54:41;18.55;;;13.38;;
24745;SDS011;12845;52.042;6.838;2023-06-26T02:57:06;16.23;;;12.63;;
24745;SDS011;12845;52.042;6.838;2023-06-26T02:59:32;15.85;;;11.98;;
24745;SDS011;12845;52.042;6.838;2023-06-26T03:01:57;13.02;;;11.23;;
24745;SDS011;12845;52.042;6.838;2023-06-26T03:04:22;13.48;;;10.88;;
24745;SDS011;12845;52.042;6.838;2023-06-26T03:06:48;14.80;;;11.15;;
24745;SDS011;12845;52.042;6.838;2023-06-26T03:09:13;12.55;;;10.75;;
24745;SDS011;12845;52.042;6.838;2023-06-26T03:11:39;11.30;;;9.07;;
24745;SDS011;12845;52.042;6.838;2023-06-26T03:14:04;12.00;;;9.88;;
24745;SDS011;12845;52.042;6.838;2023-06-26T03:16:30;13.30;;;9.73;;
24745;SDS011;12845;52.042;6.838;2023-06-26T03:18:56;13.73;;;9.73;;
24745;SDS011;12845;52.042;6.838;2023-06-26T03:21:21;14.73;;;10.50;;
24745;SDS011;12845;52.042;6.838;2023-06-26T03:23:46;13.52;;;10.55;;
24745;SDS011;12845;52.042;6.838;2023-06-26T03:26:12;13.38;;;10.07;;
24745;SDS011;12845;52.042;6.838;2023-06-26T03:28:39;14.00;;;10.88;;
24745;SDS011;12845;52.042;6.838;2023-06-26T03:31:05;14.40;;;10.73;;
24745;SDS011;12845;52.042;6.838;2023-06-26T03:33:30;12.13;;;10.75;;
24745;SDS011;12845;52.042;6.838;2023-06-26T03:35:55;13.50;;;10.43;;
24745;SDS011;12845;52.042;6.838;2023-06-26T03:38:21;13.18;;;10.38;;
24745;SDS011;12845;52.042;6.838;2023-06-26T03:40:47;12.98;;;10.52;;
24745;SDS011;12845;52.042;6.838;2023-06-26T03:43:12;13.80;;;11.02;;
24745;SDS011;12845;52.042;6.838;2023-06-26T03:45:38;15.43;;;10.50;;
24745;SDS011;12845;52.042;6.838;2023-06-26T03:48:03;13.15;;;10.70;;
24745;SDS011;12845;52.042;6.838;2023-06-26T03:50:29;15.85;;;12.00;;
24745;SDS011;12845;52.042;6.838;2023-06-26T03:52:54;14.23;;;11.52;;
24745;SDS011;12845;52.042;6.838;2023-06-26T03:55:19;16.13;;;11.70;;
24745;SDS011;12845;52.042;6.838;2023-06-26T03:57:47;14.63;;;12.15;;
24745;SDS011;12845;52.042;6.838;2023-06-26T04:00:13;14.63;;;11.90;;
24745;SDS011;12845;52.042;6.838;2023-06-26T04:02:39;16.60;;;12.65;;
24745;SDS011;12845;52.042;6.838;2023-06-26T04:05:04;17.42;;;13.63;;
24745;SDS011;12845;52.042;6.838;2023-06-26T04:07:30;14.25;;;11.85;;
24745;SDS011;12845;52.042;6.838;2023-06-26T04:09:56;15.88;;;12.15;;
24745;SDS011;12845;52.042;6.838;2023-06-26T04:12:22;14.90;;;12.95;;
24745;SDS011;12845;52.042;6.838;2023-06-26T04:14:47;15.20;;;12.35;;
24745;SDS011;12845;52.042;6.838;2023-06-26T04:17:12;16.98;;;13.15;;
24745;SDS011;12845;52.042;6.838;2023-06-26T04:19:38;16.67;;;13.55;;
24745;SDS011;12845;52.042;6.838;2023-06-26T04:22:03;17.50;;;13.15;;
24745;SDS011;12845;52.042;6.838;2023-06-26T04:24:29;15.70;;;13.77;;
24745;SDS011;12845;52.042;6.838;2023-06-26T04:26:54;16.83;;;12.10;;
24745;SDS011;12845;52.042;6.838;2023-06-26T04:29:22;16.30;;;13.05;;
24745;SDS011;12845;52.042;6.838;2023-06-26T04:31:50;14.68;;;10.93;;
24745;SDS011;12845;52.042;6.838;2023-06-26T04:34:26;14.82;;;11.00;;
24745;SDS011;12845;52.042;6.838;2023-06-26T04:36:52;14.02;;;11.48;;
24745;SDS011;12845;52.042;6.838;2023-06-26T04:39:18;14.00;;;10.70;;
24745;SDS011;12845;52.042;6.838;2023-06-26T04:41:46;14.30;;;10.35;;
24745;SDS011;12845;52.042;6.838;2023-06-26T04:44:12;11.90;;;9.02;;
24745;SDS011;12845;52.042;6.838;2023-06-26T04:46:37;15.80;;;8.57;;
24745;SDS011;12845;52.042;6.838;2023-06-26T04:49:09;13.10;;;8.02;;
24745;SDS011;12845;52.042;6.838;2023-06-26T04:51:35;11.40;;;7.65;;
24745;SDS011;12845;52.042;6.838;2023-06-26T04:54:06;12.00;;;6.90;;
24745;SDS011;12845;52.042;6.838;2023-06-26T04:56:35;12.57;;;7.13;;
24745;SDS011;12845;52.042;6.838;2023-06-26T04:59:01;11.35;;;7.00;;
24745;SDS011;12845;52.042;6.838;2023-06-26T05:01:26;11.98;;;6.40;;
24745;SDS011;12845;52.042;6.838;2023-06-26T05:04:00;10.25;;;6.70;;
24745;SDS011;12845;52.042;6.838;2023-06-26T05:06:25;12.98;;;6.22;;
24745;SDS011;12845;52.042;6.838;2023-06-26T05:08:51;12.32;;;6.20;;
24745;SDS011;12845;52.042;6.838;2023-06-26T05:11:16;13.50;;;6.50;;
24745;SDS011;12845;52.042;6.838;2023-06-26T05:13:42;8.80;;;5.15;;
24745;SDS011;12845;52.042;6.838;2023-06-26T05:16:07;10.85;;;5.63;;
24745;SDS011;12845;52.042;6.838;2023-06-26T05:18:34;14.73;;;6.18;;
24745;SDS011;12845;52.042;6.838;2023-06-26T05:21:00;11.10;;;6.10;;
24745;SDS011;12845;52.042;6.838;2023-06-26T05:23:25;12.25;;;5.50;;
24745;SDS011;12845;52.042;6.838;2023-06-26T05:25:52;9.40;;;5.50;;
24745;SDS011;12845;52.042;6.838;2023-06-26T05:28:18;11.38;;;5.68;;
24745;SDS011;12845;52.042;6.838;2023-06-26T05:30:43;7.65;;;4.85;;
24745;SDS011;12845;52.042;6.838;2023-06-26T05:33:12;13.48;;;5.35;;
24745;SDS011;12845;52.042;6.838;2023-06-26T05:35:39;10.63;;;5.70;;
24745;SDS011;12845;52.042;6.838;2023-06-26T05:38:06;10.57;;;5.57;;
24745;SDS011;12845;52.042;6.838;2023-06-26T05:40:31;10.32;;;5.05;;
24745;SDS011;12845;52.042;6.838;2023-06-26T05:42:59;14.00;;;5.68;;
24745;SDS011;12845;52.042;6.838;2023-06-26T05:45:24;11.50;;;5.15;;
24745;SDS011;12845;52.042;6.838;2023-06-26T05:47:50;10.73;;;5.07;;
24745;SDS011;12845;52.042;6.838;2023-06-26T05:50:16;10.32;;;4.90;;
24745;SDS011;12845;52.042;6.838;2023-06-26T05:52:42;11.93;;;5.72;;
24745;SDS011;12845;52.042;6.838;2023-06-26T05:55:09;12.32;;;5.53;;
24745;SDS011;12845;52.042;6.838;2023-06-26T05:57:35;11.82;;;5.55;;
24745;SDS011;12845;52.042;6.838;2023-06-26T06:00:02;10.02;;;5.43;;
24745;SDS011;12845;52.042;6.838;2023-06-26T06:02:30;14.55;;;5.70;;
24745;SDS011;12845;52.042;6.838;2023-06-26T06:04:56;17.55;;;6.50;;
24745;SDS011;12845;52.042;6.838;2023-06-26T06:07:21;12.65;;;5.95;;
24745;SDS011;12845;52.042;6.838;2023-06-26T06:09:47;11.52;;;5.22;;
24745;SDS011;12845;52.042;6.838;2023-06-26T06:12:12;10.25;;;5.35;;
24745;SDS011;12845;52.042;6.838;2023-06-26T06:14:37;12.18;;;6.15;;
24745;SDS011;12845;52.042;6.838;2023-06-26T06:17:03;12.60;;;6.10;;
24745;SDS011;12845;52.042;6.838;2023-06-26T06:19:28;11.70;;;6.22;;
24745;SDS011;12845;52.042;6.838;2023-06-26T06:21:53;17.38;;;5.60;;
24745;SDS011;12845;52.042;6.838;2023-06-26T06:24:19;14.18;;;6.88;;
24745;SDS011;12845;52.042;6.838;2023-06-26T06:26:45;16.50;;;7.40;;
24745;SDS011;12845;52.042;6.838;2023-06-26T06:29:10;10.70;;;5.47;;
24745;SDS011;12845;52.042;6.838;2023-06-26T06:31:36;13.75;;;6.43;;
24745;SDS011;12845;52.042;6.838;2023-06-26T06:37:29;13.40;;;5.95;;
24745;SDS011;12845;52.042;6.838;2023-06-26T06:51:37;13.93;;;5.70;;
24745;SDS011;12845;52.042;6.838;2023-06-26T06:54:02;14.05;;;5.95;;
24745;SDS011;12845;52.042;6.838;2023-06-26T06:56:28;12.40;;;5.88;;
24745;SDS011;12845;52.042;6.838;2023-06-26T06:58:53;10.85;;;5.15;;
24745;SDS011;12845;52.042;6.838;2023-06-26T07:01:18;9.63;;;5.50;;
24745;SDS011;12845;52.042;6.838;2023-06-26T07:03:44;10.50;;;4.65;;
24745;SDS011;12845;52.042;6.838;2023-06-26T07:06:09;12.35;;;4.80;;
24745;SDS011;12845;52.042;6.838;2023-06-26T07:08:35;11.23;;;6.07;;
24745;SDS011;12845;52.042;6.838;2023-06-26T07:11:00;14.32;;;5.88;;
24745;SDS011;12845;52.042;6.838;2023-06-26T07:13:26;12.27;;;4.93;;
24745;SDS011;12845;52.042;6.838;2023-06-26T07:15:51;14.43;;;5.40;;
24745;SDS011;12845;52.042;6.838;2023-06-26T07:18:17;11.57;;;5.00;;
24745;SDS011;12845;52.042;6.838;2023-06-26T07:20:42;11.43;;;5.05;;
24745;SDS011;12845;52.042;6.838;2023-06-26T07:23:08;12.57;;;5.57;;
24745;SDS011;12845;52.042;6.838;2023-06-26T07:25:34;14.88;;;5.60;;
24745;SDS011;12845;52.042;6.838;2023-06-26T07:27:59;11.80;;;5.53;;
24745;SDS011;12845;52.042;6.838;2023-06-26T07:30:24;11.38;;;5.68;;
24745;SDS011;12845;52.042;6.838;2023-06-26T07:32:50;10.98;;;5.45;;
24745;SDS011;12845;52.042;6.838;2023-06-26T07:35:15;12.10;;;5.38;;
24745;SDS011;12845;52.042;6.838;2023-06-26T07:37:41;13.07;;;5.50;;
24745;SDS011;12845;52.042;6.838;2023-06-26T07:40:07;11.38;;;5.85;;
24745;SDS011;12845;52.042;6.838;2023-06-26T07:42:33;18.90;;;5.63;;
24745;SDS011;12845;52.042;6.838;2023-06-26T07:44:59;13.40;;;5.90;;
24745;SDS011;12845;52.042;6.838;2023-06-26T07:47:24;9.65;;;4.85;;
24745;SDS011;12845;52.042;6.838;2023-06-26T07:49:50;10.77;;;4.53;;
24745;SDS011;12845;52.042;6.838;2023-06-26T07:52:15;11.15;;;4.60;;
24745;SDS011;12845;52.042;6.838;2023-06-26T07:54:40;10.27;;;4.03;;
24745;SDS011;12845;52.042;6.838;2023-06-26T07:57:06;7.88;;;3.60;;
24745;SDS011;12845;52.042;6.838;2023-06-26T07:59:32;10.57;;;4.18;;
24745;SDS011;12845;52.042;6.838;2023-06-26T08:01:58;11.07;;;4.10;;
24745;SDS011;12845;52.042;6.838;2023-06-26T08:04:26;13.35;;;5.15;;
24745;SDS011;12845;52.042;6.838;2023-06-26T08:06:54;9.15;;;4.35;;
24745;SDS011;12845;52.042;6.838;2023-06-26T08:09:21;11.23;;;3.95;;
24745;SDS011;12845;52.042;6.838;2023-06-26T08:11:48;8.85;;;4.40;;
24745;SDS011;12845;52.042;6.838;2023-06-26T08:14:14;6.38;;;3.40;;
24745;SDS011;12845;52.042;6.838;2023-06-26T08:16:40;7.85;;;3.53;;
24745;SDS011;12845;52.042;6.838;2023-06-26T08:19:07;7.15;;;3.75;;
24745;SDS011;12845;52.042;6.838;2023-06-26T08:21:33;7.22;;;3.38;;
24745;SDS011;12845;52.042;6.838;2023-06-26T08:23:58;5.80;;;3.40;;
24745;SDS011;12845;52.042;6.838;2023-06-26T08:26:24;5.63;;;3.42;;
24745;SDS011;12845;52.042;6.838;2023-06-26T08:28:49;7.75;;;3.50;;
24745;SDS011;12845;52.042;6.838;2023-06-26T08:31:15;5.35;;;2.83;;
24745;SDS011;12845;52.042;6.838;2023-06-26T08:33:41;7.35;;;2.75;;
24745;SDS011;12845;52.042;6.838;2023-06-26T08:36:06;5.78;;;2.90;;
24745;SDS011;12845;52.042;6.838;2023-06-26T08:38:32;5.82;;;2.92;;
24745;SDS011;12845;52.042;6.838;2023-06-26T08:40:58;5.95;;;2.50;;
24745;SDS011;12845;52.042;6.838;2023-06-26T08:43:23;4.82;;;2.60;;
24745;SDS011;12845;52.042;6.838;2023-06-26T08:45:49;5.68;;;2.25;;
24745;SDS011;12845;52.042;6.838;2023-06-26T08:48:16;6.13;;;2.35;;
24745;SDS011;12845;52.042;6.838;2023-06-26T08:50:43;5.55;;;2.30;;
24745;SDS011;12845;52.042;6.838;2023-06-26T08:56:13;6.07;;;2.65;;
24745;SDS011;12845;52.042;6.838;2023-06-26T09:01:07;6.30;;;2.53;;
24745;SDS011;12845;52.042;6.838;2023-06-26T09:03:33;6.97;;;2.58;;
24745;SDS011;12845;52.042;6.838;2023-06-26T09:05:59;3.97;;;2.10;;
24745;SDS011;12845;52.042;6.838;2023-06-26T09:08:25;6.25;;;2.80;;
24745;SDS011;12845;52.042;6.838;2023-06-26T09:10:51;5.22;;;2.60;;
24745;SDS011;12845;52.042;6.838;2023-06-26T09:13:17;3.95;;;2.63;;
24745;SDS011;12845;52.042;6.838;2023-06-26T09:15:44;4.20;;;2.85;;
24745;SDS011;12845;52.042;6.838;2023-06-26T09:18:10;5.78;;;3.00;;
24745;SDS011;12845;52.042;6.838;2023-06-26T09:20:36;5.32;;;2.60;;
24745;SDS011;12845;52.042;6.838;2023-06-26T09:23:02;6.78;;;2.53;;
24745;SDS011;12845;52.042;6.838;2023-06-26T09:25:28;6.47;;;2.70;;
24745;SDS011;12845;52.042;6.838;2023-06-26T09:27:54;6.50;;;2.50;;
24745;SDS011;12845;52.042;6.838;2023-06-26T09:30:20;6.10;;;2.70;;
24745;SDS011;12845;52.042;6.838;2023-06-26T09:32:46;6.80;;;2.83;;
24745;SDS011;12845;52.042;6.838;2023-06-26T09:35:12;7.13;;;2.78;;
24745;SDS011;12845;52.042;6.838;2023-06-26T09:37:37;4.82;;;2.85;;
24745;SDS011;12845;52.042;6.838;2023-06-26T09:40:03;6.10;;;3.05;;
24745;SDS011;12845;52.042;6.838;2023-06-26T09:42:33;5.78;;;2.97;;
24745;SDS011;12845;52.042;6.838;2023-06-26T09:44:59;5.43;;;2.67;;
24745;SDS011;12845;52.042;6.838;2023-06-26T09:47:24;5.18;;;2.67;;
24745;SDS011;12845;52.042;6.838;2023-06-26T09:49:50;6.18;;;2.90;;
24745;SDS011;12845;52.042;6.838;2023-06-26T09:52:17;4.03;;;2.38;;
24745;SDS011;12845;52.042;6.838;2023-06-26T09:54:44;5.97;;;2.70;;
24745;SDS011;12845;52.042;6.838;2023-06-26T09:57:13;4.90;;;2.42;;
24745;SDS011;12845;52.042;6.838;2023-06-26T09:59:42;5.07;;;2.63;;
24745;SDS011;12845;52.042;6.838;2023-06-26T10:02:10;5.18;;;2.45;;
24745;SDS011;12845;52.042;6.838;2023-06-26T10:04:36;4.25;;;2.40;;
24745;SDS011;12845;52.042;6.838;2023-06-26T10:07:04;5.95;;;2.72;;
24745;SDS011;12845;52.042;6.838;2023-06-26T10:09:31;6.07;;;2.40;;
24745;SDS011;12845;52.042;6.838;2023-06-26T10:12:01;6.80;;;3.22;;
24745;SDS011;12845;52.042;6.838;2023-06-26T10:14:33;8.52;;;2.50;;
24745;SDS011;12845;52.042;6.838;2023-06-26T10:17:04;5.55;;;2.80;;
24745;SDS011;12845;52.042;6.838;2023-06-26T10:19:34;4.03;;;1.98;;
24745;SDS011;12845;52.042;6.838;2023-06-26T10:22:02;5.50;;;2.58;;
24745;SDS011;12845;52.042;6.838;2023-06-26T10:24:29;5.47;;;2.38;;
24745;SDS011;12845;52.042;6.838;2023-06-26T10:27:08;5.75;;;2.40;;
24745;SDS011;12845;52.042;6.838;2023-06-26T10:29:39;4.68;;;2.17;;
24745;SDS011;12845;52.042;6.838;2023-06-26T10:32:05;6.13;;;3.05;;
24745;SDS011;12845;52.042;6.838;2023-06-26T10:34:32;5.50;;;2.70;;
24745;SDS011;12845;52.042;6.838;2023-06-26T10:36:58;3.75;;;2.15;;
24745;SDS011;12845;52.042;6.838;2023-06-26T10:39:26;5.15;;;2.60;;
24745;SDS011;12845;52.042;6.838;2023-06-26T10:41:52;6.93;;;2.50;;
24745;SDS011;12845;52.042;6.838;2023-06-26T10:44:20;5.45;;;2.20;;
24745;SDS011;12845;52.042;6.838;2023-06-26T10:46:55;4.47;;;2.13;;
24745;SDS011;12845;52.042;6.838;2023-06-26T10:49:27;5.15;;;2.08;;
24745;SDS011;12845;52.042;6.838;2023-06-26T10:51:54;4.07;;;1.67;;
24745;SDS011;12845;52.042;6.838;2023-06-26T10:54:23;3.28;;;1.85;;
24745;SDS011;12845;52.042;6.838;2023-06-26T10:56:54;4.47;;;1.92;;
24745;SDS011;12845;52.042;6.838;2023-06-26T10:59:24;3.83;;;2.00;;
24745;SDS011;12845;52.042;6.838;2023-06-26T11:01:55;5.40;;;1.92;;
24745;SDS011;12845;52.042;6.838;2023-06-26T11:04:43;4.13;;;1.73;;
24745;SDS011;12845;52.042;6.838;2023-06-26T11:09:56;3.83;;;1.75;;
24745;SDS011;12845;52.042;6.838;2023-06-26T11:12:41;4.63;;;1.55;;
24745;SDS011;12845;52.042;6.838;2023-06-26T11:15:14;3.92;;;1.42;;
24745;SDS011;12845;52.042;6.838;2023-06-26T11:17:42;3.60;;;1.52;;
24745;SDS011;12845;52.042;6.838;2023-06-26T11:20:11;3.80;;;1.40;;
24745;SDS011;12845;52.042;6.838;2023-06-26T11:22:39;2.63;;;1.42;;
24745;SDS011;12845;52.042;6.838;2023-06-26T11:25:06;3.60;;;1.10;;
24745;SDS011;12845;52.042;6.838;2023-06-26T11:27:41;5.65;;;1.23;;
24745;SDS011;12845;52.042;6.838;2023-06-26T11:30:08;6.28;;;1.55;;
24745;SDS011;12845;52.042;6.838;2023-06-26T11:32:39;3.15;;;1.20;;
24745;SDS011;12845;52.042;6.838;2023-06-26T11:35:05;4.18;;;1.20;;
24745;SDS011;12845;52.042;6.838;2023-06-26T11:37:31;2.75;;;1.10;;
24745;SDS011;12845;52.042;6.838;2023-06-26T11:39:57;9.73;;;2.00;;
24745;SDS011;12845;52.042;6.838;2023-06-26T11:42:23;3.60;;;1.10;;
24745;SDS011;12845;52.042;6.838;2023-06-26T11:44:50;3.75;;;1.50;;
24745;SDS011;12845;52.042;6.838;2023-06-26T11:47:17;4.50;;;1.30;;
24745;SDS011;12845;52.042;6.838;2023-06-26T11:49:44;5.20;;;1.40;;
24745;SDS011;12845;52.042;6.838;2023-06-26T11:52:10;4.32;;;1.00;;
24745;SDS011;12845;52.042;6.838;2023-06-26T11:54:36;3.75;;;1.20;;
24745;SDS011;12845;52.042;6.838;2023-06-26T11:57:02;2.72;;;1.27;;
24745;SDS011;12845;52.042;6.838;2023-06-26T11:59:34;3.75;;;0.93;;
24745;SDS011;12845;52.042;6.838;2023-06-26T12:02:04;2.33;;;0.90;;
24745;SDS011;12845;52.042;6.838;2023-06-26T12:04:34;5.78;;;1.15;;
24745;SDS011;12845;52.042;6.838;2023-06-26T12:07:05;3.60;;;1.17;;
24745;SDS011;12845;52.042;6.838;2023-06-26T12:09:33;3.05;;;0.90;;
24745;SDS011;12845;52.042;6.838;2023-06-26T12:12:03;4.10;;;1.10;;
24745;SDS011;12845;52.042;6.838;2023-06-26T12:14:29;2.33;;;0.80;;
24745;SDS011;12845;52.042;6.838;2023-06-26T12:16:55;2.92;;;0.80;;
24745;SDS011;12845;52.042;6.838;2023-06-26T12:19:27;3.95;;;1.25;;
24745;SDS011;12845;52.042;6.838;2023-06-26T12:21:52;2.28;;;0.90;;
24745;SDS011;12845;52.042;6.838;2023-06-26T12:24:21;4.30;;;1.20;;
24745;SDS011;12845;52.042;6.838;2023-06-26T12:26:56;4.18;;;1.00;;
24745;SDS011;12845;52.042;6.838;2023-06-26T12:29:28;1.73;;;0.98;;
24745;SDS011;12845;52.042;6.838;2023-06-26T12:31:56;4.65;;;1.10;;
24745;SDS011;12845;52.042;6.838;2023-06-26T12:34:28;3.78;;;1.23;;
24745;SDS011;12845;52.042;6.838;2023-06-26T12:37:01;3.17;;;1.20;;
24745;SDS011;12845;52.042;6.838;2023-06-26T12:39:28;2.53;;;0.93;;
24745;SDS011;12845;52.042;6.838;2023-06-26T12:41:56;2.70;;;1.17;;
24745;SDS011;12845;52.042;6.838;2023-06-26T12:44:28;3.40;;;1.30;;
24745;SDS011;12845;52.042;6.838;2023-06-26T12:46:56;2.80;;;0.90;;
24745;SDS011;12845;52.042;6.838;2023-06-26T12:49:37;2.38;;;1.25;;
24745;SDS011;12845;52.042;6.838;2023-06-26T12:52:06;4.95;;;1.10;;
24745;SDS011;12845;52.042;6.838;2023-06-26T12:54:37;2.05;;;0.95;;
24745;SDS011;12845;52.042;6.838;2023-06-26T12:57:04;4.97;;;1.45;;
24745;SDS011;12845;52.042;6.838;2023-06-26T12:59:30;2.45;;;1.20;;
24745;SDS011;12845;52.042;6.838;2023-06-26T13:01:56;1.90;;;1.08;;
24745;SDS011;12845;52.042;6.838;2023-06-26T13:04:21;2.60;;;0.80;;
24745;SDS011;12845;52.042;6.838;2023-06-26T13:06:47;5.60;;;0.95;;
24745;SDS011;12845;52.042;6.838;2023-06-26T13:09:12;2.40;;;0.80;;
24745;SDS011;12845;52.042;6.838;2023-06-26T13:11:38;2.38;;;0.82;;
24745;SDS011;12845;52.042;6.838;2023-06-26T13:14:03;5.10;;;1.17;;
24745;SDS011;12845;52.042;6.838;2023-06-26T13:16:29;2.92;;;1.05;;
24745;SDS011;12845;52.042;6.838;2023-06-26T13:18:55;1.95;;;0.70;;
24745;SDS011;12845;52.042;6.838;2023-06-26T13:21:23;2.60;;;0.80;;
24745;SDS011;12845;52.042;6.838;2023-06-26T13:23:48;6.30;;;1.38;;
24745;SDS011;12845;52.042;6.838;2023-06-26T13:26:14;1.88;;;0.75;;
24745;SDS011;12845;52.042;6.838;2023-06-26T13:28:39;1.77;;;0.60;;
24745;SDS011;12845;52.042;6.838;2023-06-26T13:31:04;1.65;;;0.88;;
24745;SDS011;12845;52.042;6.838;2023-06-26T13:33:30;2.97;;;1.00;;
24745;SDS011;12845;52.042;6.838;2023-06-26T13:35:56;2.58;;;0.70;;
24745;SDS011;12845;52.042;6.838;2023-06-26T13:38:23;4.00;;;1.10;;
24745;SDS011;12845;52.042;6.838;2023-06-26T13:40:52;1.63;;;0.70;;
24745;SDS011;12845;52.042;6.838;2023-06-26T13:43:22;4.43;;;0.90;;
24745;SDS011;12845;52.042;6.838;2023-06-26T13:45:48;2.17;;;0.90;;
24745;SDS011;12845;52.042;6.838;2023-06-26T13:48:14;2.55;;;1.10;;
24745;SDS011;12845;52.042;6.838;2023-06-26T13:50:39;3.45;;;1.08;;
24745;SDS011;12845;52.042;6.838;2023-06-26T13:53:05;5.28;;;1.23;;
24745;SDS011;12845;52.042;6.838;2023-06-26T13:55:31;6.05;;;1.10;;
24745;SDS011;12845;52.042;6.838;2023-06-26T13:57:56;2.22;;;1.10;;
24745;SDS011;12845;52.042;6.838;2023-06-26T14:00:21;2.65;;;0.85;;
24745;SDS011;12845;52.042;6.838;2023-06-26T14:02:47;5.18;;;1.10;;
24745;SDS011;12845;52.042;6.838;2023-06-26T14:05:13;2.15;;;0.88;;
24745;SDS011;12845;52.042;6.838;2023-06-26T14:07:38;2.30;;;0.90;;
24745;SDS011;12845;52.042;6.838;2023-06-26T14:10:04;2.80;;;0.88;;
24745;SDS011;12845;52.042;6.838;2023-06-26T14:12:31;2.17;;;1.05;;
24745;SDS011;12845;52.042;6.838;2023-06-26T14:14:57;3.50;;;0.90;;
24745;SDS011;12845;52.042;6.838;2023-06-26T14:17:22;1.38;;;0.75;;
24745;SDS011;12845;52.042;6.838;2023-06-26T14:19:49;4.57;;;1.00;;
24745;SDS011;12845;52.042;6.838;2023-06-26T14:22:14;1.45;;;0.70;;
24745;SDS011;12845;52.042;6.838;2023-06-26T14:24:40;2.40;;;0.80;;
24745;SDS011;12845;52.042;6.838;2023-06-26T14:27:05;2.58;;;1.00;;
24745;SDS011;12845;52.042;6.838;2023-06-26T14:29:31;3.05;;;0.93;;
24745;SDS011;12845;52.042;6.838;2023-06-26T14:31:56;2.97;;;1.27;;
24745;SDS011;12845;52.042;6.838;2023-06-26T14:34:22;1.27;;;0.70;;
24745;SDS011;12845;52.042;6.838;2023-06-26T14:36:47;1.67;;;0.63;;
24745;SDS011;12845;52.042;6.838;2023-06-26T14:39:12;2.45;;;0.70;;
24745;SDS011;12845;52.042;6.838;2023-06-26T14:41:38;3.13;;;0.90;;
24745;SDS011;12845;52.042;6.838;2023-06-26T14:44:03;1.63;;;0.75;;
24745;SDS011;12845;52.042;6.838;2023-06-26T14:46:29;2.58;;;0.88;;
24745;SDS011;12845;52.042;6.838;2023-06-26T14:48:55;3.38;;;0.95;;
24745;SDS011;12845;52.042;6.838;2023-06-26T14:51:20;1.67;;;0.70;;
24745;SDS011;12845;52.042;6.838;2023-06-26T14:53:46;2.45;;;0.80;;
24745;SDS011;12845;52.042;6.838;2023-06-26T14:56:12;3.10;;;0.80;;
24745;SDS011;12845;52.042;6.838;2023-06-26T14:58:38;4.32;;;0.85;;
24745;SDS011;12845;52.042;6.838;2023-06-26T15:01:03;1.63;;;0.90;;
24745;SDS011;12845;52.042;6.838;2023-06-26T15:03:29;1.98;;;0.70;;